Time,TemperatureF,DewpointF,PressureIn,WindDirection,WindDirectionDegrees,WindSpeedMPH,WindSpeedGustMPH,Humidity,HourlyPrecipIn,Conditions,Clouds,dailyrainin,SoftwareType,DateUTC
2013-05-09 00:01:00,55.9,51.8,29.86,NW,305,0.0,0.0,86,0.00,,---,0.16,VWS V14.01,2013-05-09 04:01:00,
2013-05-09 00:06:00,55.9,51.5,29.86,NW,305,0.0,0.0,85,0.00,,---,0.00,VWS V14.01,2013-05-09 04:06:00,
2013-05-09 00:11:00,55.9,51.1,29.86,NW,305,0.0,0.0,84,0.00,,---,0.00,VWS V14.01,2013-05-09 04:11:00,
2013-05-09 00:16:00,56.0,50.9,29.86,NW,305,0.0,0.0,83,0.00,,---,0.00,VWS V14.01,2013-05-09 04:16:00,
2013-05-09 00:21:00,56.0,50.9,29.87,NW,305,0.0,0.0,83,0.00,,---,0.00,VWS V14.01,2013-05-09 04:21:00,
2013-05-09 00:26:00,55.4,50.7,29.87,NW,305,0.0,0.0,84,0.00,,---,0.00,VWS V14.01,2013-05-09 04:26:00,
2013-05-09 00:31:00,55.3,51.2,29.87,NW,305,0.0,0.0,86,0.00,,---,0.00,VWS V14.01,2013-05-09 04:31:00,
2013-05-09 00:36:00,55.4,51.0,29.87,NW,305,0.0,0.0,85,0.00,,---,0.00,VWS V14.01,2013-05-09 04:36:00,
2013-05-09 00:41:00,55.9,51.8,29.87,NW,305,0.0,0.0,86,0.00,,---,0.00,VWS V14.01,2013-05-09 04:41:00,
2013-05-09 00:46:00,55.5,51.4,29.87,NW,305,0.0,0.0,86,0.00,,---,0.00,VWS V14.01,2013-05-09 04:46:00,
2013-05-09 00:51:00,55.1,51.6,29.87,NW,305,0.0,0.0,88,0.00,,---,0.00,VWS V14.01,2013-05-09 04:51:00,
2013-05-09 00:56:00,55.2,51.4,29.87,NW,305,0.0,0.0,87,0.00,,---,0.00,VWS V14.01,2013-05-09 04:56:00,
2013-05-09 01:01:00,55.0,51.5,29.87,NW,305,0.0,0.0,88,0.00,,---,0.00,VWS V14.01,2013-05-09 05:01:00,
2013-05-09 01:06:00,54.6,51.4,29.87,NW,305,0.0,0.0,89,0.00,,---,0.00,VWS V14.01,2013-05-09 05:06:00,
2013-05-09 01:11:00,54.5,51.3,29.87,NW,305,0.0,0.0,89,0.00,,---,0.00,VWS V14.01,2013-05-09 05:11:00,
2013-05-09 01:16:00,54.3,51.4,29.87,NW,305,0.0,0.0,90,0.00,,---,0.00,VWS V14.01,2013-05-09 05:16:00,
2013-05-09 01:21:00,54.2,51.0,29.86,NW,305,0.0,0.0,89,0.00,,---,0.00,VWS V14.01,2013-05-09 05:21:00,
2013-05-09 01:26:00,54.1,50.9,29.86,NW,305,0.0,0.0,89,0.00,,---,0.00,VWS V14.01,2013-05-09 05:26:00,
2013-05-09 01:31:00,54.3,51.4,29.86,NW,305,0.0,0.0,90,0.00,,---,0.00,VWS V14.01,2013-05-09 05:31:00,
2013-05-09 01:36:00,54.3,51.4,29.86,NW,305,0.0,0.0,90,0.00,,---,0.00,VWS V14.01,2013-05-09 05:36:00,
2013-05-09 01:41:00,54.0,50.8,29.86,NW,305,0.0,0.0,89,0.00,,---,0.00,VWS V14.01,2013-05-09 05:41:00,
2013-05-09 01:46:00,53.6,50.7,29.86,NW,305,0.0,0.0,90,0.00,,---,0.00,VWS V14.01,2013-05-09 05:46:00,
2013-05-09 01:51:00,53.5,50.6,29.86,NW,305,0.0,0.0,90,0.00,,---,0.00,VWS V14.01,2013-05-09 05:51:00,
2013-05-09 01:56:00,53.3,50.7,29.86,NW,305,0.0,0.0,91,0.00,,---,0.00,VWS V14.01,2013-05-09 05:56:00,
2013-05-09 02:01:00,53.3,50.7,29.86,NW,305,0.0,0.0,91,0.00,,---,0.00,VWS V14.01,2013-05-09 06:01:00,
2013-05-09 02:06:00,53.3,50.7,29.85,NW,305,0.0,0.0,91,0.00,,---,0.00,VWS V14.01,2013-05-09 06:06:00,
2013-05-09 02:11:00,53.2,50.7,29.85,NW,305,0.0,0.0,91,0.00,,---,0.00,VWS V14.01,2013-05-09 06:11:00,
2013-05-09 02:16:00,52.9,50.3,29.85,NW,305,0.0,0.0,91,0.00,,---,0.00,VWS V14.01,2013-05-09 06:16:00,
2013-05-09 02:21:00,52.9,50.6,29.85,NW,305,0.0,0.0,92,0.00,,---,0.00,VWS V14.01,2013-05-09 06:21:00,
2013-05-09 02:26:00,53.2,50.7,29.85,NW,305,0.0,0.0,91,0.00,,---,0.00,VWS V14.01,2013-05-09 06:26:00,
2013-05-09 02:31:00,53.4,51.1,29.85,NW,305,0.0,0.0,92,0.00,,---,0.00,VWS V14.01,2013-05-09 06:31:00,
2013-05-09 02:36:00,53.3,51.0,29.84,NW,305,0.0,0.0,92,0.00,,---,0.00,VWS V14.01,2013-05-09 06:36:00,
2013-05-09 02:41:00,52.9,50.6,29.84,NW,305,0.0,0.0,92,0.00,,---,0.00,VWS V14.01,2013-05-09 06:41:00,
2013-05-09 02:46:00,52.4,50.2,29.84,NW,305,0.0,0.0,92,0.00,,---,0.00,VWS V14.01,2013-05-09 06:46:00,
2013-05-09 02:50:00,52.1,49.8,29.84,NW,305,0.0,0.0,92,0.00,,---,0.00,VWS V14.01,2013-05-09 06:50:00,
2013-05-09 02:55:00,52.0,50.0,29.84,NW,305,0.0,0.0,93,0.00,,---,0.00,VWS V14.01,2013-05-09 06:55:00,
2013-05-09 03:00:00,51.9,49.9,29.84,NW,305,0.0,0.0,93,0.00,,---,0.00,VWS V14.01,2013-05-09 07:00:00,
2013-05-09 03:05:00,51.8,49.8,29.83,NW,305,0.0,0.0,93,0.00,,---,0.00,VWS V14.01,2013-05-09 07:05:00,
2013-05-09 03:10:00,51.6,49.7,29.83,NW,305,0.0,0.0,93,0.00,,---,0.00,VWS V14.01,2013-05-09 07:10:00,
2013-05-09 03:15:00,51.6,49.7,29.83,NW,305,0.0,0.0,93,0.00,,---,0.00,VWS V14.01,2013-05-09 07:15:00,
2013-05-09 03:20:00,51.8,50.1,29.83,NW,305,0.0,0.0,94,0.00,,---,0.00,VWS V14.01,2013-05-09 07:20:00,
2013-05-09 03:25:00,51.9,49.9,29.83,NW,305,0.0,0.0,93,0.00,,---,0.00,VWS V14.01,2013-05-09 07:25:00,
2013-05-09 03:30:00,51.9,49.9,29.83,NW,305,0.0,0.0,93,0.00,,---,0.00,VWS V14.01,2013-05-09 07:30:00,
2013-05-09 03:35:00,51.9,50.2,29.84,NW,305,0.0,0.0,94,0.00,,---,0.00,VWS V14.01,2013-05-09 07:35:00,
2013-05-09 03:40:00,51.8,50.1,29.84,NW,305,0.0,0.0,94,0.00,,---,0.00,VWS V14.01,2013-05-09 07:40:00,
2013-05-09 03:45:00,51.7,50.0,29.84,NW,305,0.0,0.0,94,0.00,,---,0.00,VWS V14.01,2013-05-09 07:45:00,
2013-05-09 03:53:00,51.2,49.5,29.84,NW,305,0.0,0.0,94,0.00,,---,0.00,VWS V14.01,2013-05-09 07:53:00,
2013-05-09 03:58:00,51.1,49.7,29.84,NW,305,0.0,0.0,95,0.00,,---,0.00,VWS V14.01,2013-05-09 07:58:00,
2013-05-09 04:03:00,51.0,49.6,29.84,NW,305,0.0,0.0,95,0.00,,---,0.00,VWS V14.01,2013-05-09 08:03:00,
2013-05-09 04:08:00,51.2,49.8,29.84,NW,305,0.0,0.0,95,0.00,,---,0.00,VWS V14.01,2013-05-09 08:08:00,
2013-05-09 04:13:00,51.1,49.7,29.84,NW,305,0.0,0.0,95,0.00,,---,0.00,VWS V14.01,2013-05-09 08:13:00,
2013-05-09 04:18:00,50.8,49.4,29.84,NW,305,0.0,0.0,95,0.00,,---,0.00,VWS V14.01,2013-05-09 08:18:00,
2013-05-09 04:23:00,50.7,49.3,29.84,NW,305,0.0,0.0,95,0.00,,---,0.00,VWS V14.01,2013-05-09 08:23:00,
2013-05-09 04:28:00,50.7,49.3,29.84,NW,305,0.0,0.0,95,0.00,,---,0.00,VWS V14.01,2013-05-09 08:28:00,
2013-05-09 04:33:00,50.7,49.3,29.84,NW,305,0.0,0.0,95,0.00,,---,0.00,VWS V14.01,2013-05-09 08:33:00,
2013-05-09 04:38:00,50.9,49.8,29.84,NW,305,0.0,0.0,96,0.00,,---,0.00,VWS V14.01,2013-05-09 08:38:00,
2013-05-09 04:43:00,51.0,49.6,29.84,NW,305,0.0,0.0,95,0.00,,---,0.00,VWS V14.01,2013-05-09 08:43:00,
2013-05-09 04:48:00,50.9,49.5,29.84,NW,305,0.0,0.0,95,0.00,,---,0.00,VWS V14.01,2013-05-09 08:48:00,
2013-05-09 04:53:00,50.7,49.3,29.85,NW,305,0.0,0.0,95,0.00,,---,0.00,VWS V14.01,2013-05-09 08:53:00,
2013-05-09 04:58:00,50.5,49.1,29.85,NW,305,0.0,0.0,95,0.00,,---,0.00,VWS V14.01,2013-05-09 08:58:00,
2013-05-09 05:03:00,50.3,49.2,29.85,NW,305,0.0,0.0,96,0.00,,---,0.00,VWS V14.01,2013-05-09 09:03:00,
2013-05-09 05:08:00,50.1,49.0,29.84,NW,305,0.0,0.0,96,0.00,,---,0.00,VWS V14.01,2013-05-09 09:08:00,
2013-05-09 05:13:00,50.0,48.9,29.84,NW,305,0.0,0.0,96,0.00,,---,0.00,VWS V14.01,2013-05-09 09:13:00,
2013-05-09 05:18:00,50.0,48.9,29.84,NW,305,0.0,0.0,96,0.00,,---,0.00,VWS V14.01,2013-05-09 09:18:00,
2013-05-09 05:23:00,50.0,48.9,29.85,NW,305,0.0,0.0,96,0.00,,---,0.00,VWS V14.01,2013-05-09 09:23:00,
2013-05-09 05:28:00,50.0,48.9,29.85,NW,305,0.0,0.0,96,0.00,,---,0.00,VWS V14.01,2013-05-09 09:28:00,
2013-05-09 05:33:00,49.8,48.7,29.85,NW,305,0.0,0.0,96,0.00,,---,0.00,VWS V14.01,2013-05-09 09:33:00,
2013-05-09 05:38:00,49.7,48.6,29.85,NW,305,0.0,0.0,96,0.00,,---,0.00,VWS V14.01,2013-05-09 09:38:00,
2013-05-09 05:43:00,49.9,48.8,29.85,NW,305,0.0,0.0,96,0.00,,---,0.00,VWS V14.01,2013-05-09 09:43:00,
2013-05-09 05:48:00,49.9,48.8,29.85,NW,305,0.0,0.0,96,0.00,,---,0.00,VWS V14.01,2013-05-09 09:48:00,
2013-05-09 05:53:00,49.8,48.7,29.84,NW,305,0.0,0.0,96,0.00,,---,0.00,VWS V14.01,2013-05-09 09:53:00,
2013-05-09 05:58:00,49.6,48.5,29.84,NW,305,0.0,0.0,96,0.00,,---,0.00,VWS V14.01,2013-05-09 09:58:00,
2013-05-09 06:03:00,49.6,48.5,29.84,NW,305,0.0,0.0,96,0.00,,---,0.00,VWS V14.01,2013-05-09 10:03:00,
2013-05-09 06:08:00,49.7,48.9,29.85,NW,305,0.0,0.0,97,0.00,,---,0.00,VWS V14.01,2013-05-09 10:08:00,
2013-05-09 06:13:00,49.5,48.4,29.85,NW,305,0.0,0.0,96,0.00,,---,0.00,VWS V14.01,2013-05-09 10:13:00,
2013-05-09 06:18:00,49.4,48.3,29.85,NW,305,0.0,0.0,96,0.00,,---,0.00,VWS V14.01,2013-05-09 10:18:00,
2013-05-09 06:23:00,49.3,48.2,29.85,NW,305,0.0,0.0,96,0.00,,---,0.00,VWS V14.01,2013-05-09 10:23:00,
2013-05-09 06:28:00,49.2,48.1,29.85,NW,305,0.0,0.0,96,0.00,,---,0.00,VWS V14.01,2013-05-09 10:28:00,
2013-05-09 06:33:00,49.1,48.0,29.85,NW,305,0.0,0.0,96,0.00,,---,0.00,VWS V14.01,2013-05-09 10:33:00,
2013-05-09 06:38:00,49.2,48.4,29.86,NW,305,0.0,0.0,97,0.00,,---,0.00,VWS V14.01,2013-05-09 10:38:00,
2013-05-09 06:43:00,49.3,48.5,29.86,NW,305,0.0,0.0,97,0.00,,---,0.00,VWS V14.01,2013-05-09 10:43:00,
2013-05-09 06:48:00,49.3,48.5,29.86,NW,305,0.0,0.0,97,0.00,,---,0.00,VWS V14.01,2013-05-09 10:48:00,
2013-05-09 06:53:00,49.3,48.5,29.86,NW,305,0.0,0.0,97,0.00,,---,0.00,VWS V14.01,2013-05-09 10:53:00,
2013-05-09 06:58:00,49.4,48.6,29.86,NW,305,0.0,0.0,97,0.00,,---,0.00,VWS V14.01,2013-05-09 10:58:00,
2013-05-09 07:03:00,49.5,48.7,29.86,NW,305,0.0,0.0,97,0.00,,---,0.00,VWS V14.01,2013-05-09 11:03:00,
2013-05-09 07:08:00,49.7,48.9,29.86,NW,305,0.0,0.0,97,0.00,,---,0.00,VWS V14.01,2013-05-09 11:08:00,
2013-05-09 07:13:00,49.9,49.1,29.86,NW,305,0.0,0.0,97,0.00,,---,0.00,VWS V14.01,2013-05-09 11:13:00,
2013-05-09 07:18:00,49.9,49.1,29.86,NW,305,0.0,0.0,97,0.00,,---,0.00,VWS V14.01,2013-05-09 11:18:00,
2013-05-09 07:23:00,49.9,49.1,29.86,NW,305,0.0,0.0,97,0.00,,---,0.00,VWS V14.01,2013-05-09 11:23:00,
2013-05-09 07:28:00,50.2,49.4,29.86,NW,305,0.0,0.0,97,0.00,,---,0.00,VWS V14.01,2013-05-09 11:28:00,
2013-05-09 07:33:00,50.5,49.7,29.86,NW,305,0.0,0.0,97,0.00,,---,0.00,VWS V14.01,2013-05-09 11:33:00,
2013-05-09 07:38:00,50.8,50.0,29.87,NW,305,0.0,0.0,97,0.00,,---,0.00,VWS V14.01,2013-05-09 11:38:00,
2013-05-09 07:43:00,51.1,50.3,29.87,NW,305,0.0,0.0,97,0.00,,---,0.00,VWS V14.01,2013-05-09 11:43:00,
2013-05-09 07:48:00,51.7,50.9,29.87,NW,305,0.0,0.0,97,0.00,,---,0.00,VWS V14.01,2013-05-09 11:48:00,
2013-05-09 07:53:00,52.7,51.9,29.86,NW,305,0.0,0.0,97,0.00,,---,0.00,VWS V14.01,2013-05-09 11:53:00,
2013-05-09 07:58:00,53.6,52.8,29.86,NW,305,0.0,0.0,97,0.00,,---,0.00,VWS V14.01,2013-05-09 11:58:00,
2013-05-09 08:03:00,54.3,53.5,29.86,NW,305,0.0,0.0,97,0.00,,---,0.00,VWS V14.01,2013-05-09 12:03:00,
2013-05-09 08:08:00,55.2,53.8,29.86,NW,305,0.0,0.0,95,0.00,,---,0.00,VWS V14.01,2013-05-09 12:08:00,
2013-05-09 08:13:00,56.3,54.3,29.86,NW,305,0.0,0.0,93,0.00,,---,0.00,VWS V14.01,2013-05-09 12:13:00,
2013-05-09 08:18:00,57.1,54.5,29.86,NW,305,0.0,0.0,91,0.00,,---,0.00,VWS V14.01,2013-05-09 12:18:00,
2013-05-09 08:23:00,57.5,55.2,29.87,NW,305,0.0,0.0,92,0.00,,---,0.00,VWS V14.01,2013-05-09 12:23:00,
2013-05-09 08:28:00,57.9,54.7,29.87,NW,305,0.0,0.0,89,0.00,,---,0.00,VWS V14.01,2013-05-09 12:28:00,
2013-05-09 08:33:00,58.8,54.6,29.87,NW,305,0.0,0.0,86,0.00,,---,0.00,VWS V14.01,2013-05-09 12:33:00,
2013-05-09 08:38:00,59.7,54.5,29.87,NW,305,0.0,0.0,83,0.00,,---,0.00,VWS V14.01,2013-05-09 12:38:00,
2013-05-09 08:43:00,60.4,55.5,29.87,NW,305,0.0,0.0,84,0.00,,---,0.00,VWS V14.01,2013-05-09 12:43:00,
2013-05-09 08:48:00,60.5,55.0,29.87,NW,305,0.0,0.0,82,0.00,,---,0.00,VWS V14.01,2013-05-09 12:48:00,
2013-05-09 08:53:00,60.9,55.0,29.87,NW,305,0.0,0.0,81,0.00,,---,0.00,VWS V14.01,2013-05-09 12:53:00,
2013-05-09 08:58:00,61.4,55.9,29.87,NW,305,0.0,0.0,82,0.00,,---,0.00,VWS V14.01,2013-05-09 12:58:00,
2013-05-09 09:03:00,62.2,54.5,29.87,NW,305,0.0,0.0,76,0.00,,---,0.00,VWS V14.01,2013-05-09 13:03:00,
2013-05-09 09:08:00,63.2,55.2,29.87,NW,305,0.0,0.0,75,0.00,,---,0.00,VWS V14.01,2013-05-09 13:08:00,
2013-05-09 09:13:00,64.0,53.6,29.87,NW,305,0.0,0.0,69,0.00,,---,0.00,VWS V14.01,2013-05-09 13:13:00,
2013-05-09 09:18:00,64.7,53.5,29.87,NW,305,0.0,0.0,67,0.00,,---,0.00,VWS V14.01,2013-05-09 13:18:00,
2013-05-09 09:23:00,65.1,53.9,29.87,NW,305,0.0,0.0,67,0.00,,---,0.00,VWS V14.01,2013-05-09 13:23:00,
2013-05-09 09:28:00,65.5,55.1,29.87,NW,305,0.0,0.0,69,0.00,,---,0.00,VWS V14.01,2013-05-09 13:28:00,
2013-05-09 09:33:00,66.2,54.1,29.87,NW,305,0.0,0.0,65,0.00,,---,0.00,VWS V14.01,2013-05-09 13:33:00,
2013-05-09 09:38:00,66.7,53.7,29.87,NW,305,0.0,0.0,63,0.00,,---,0.00,VWS V14.01,2013-05-09 13:38:00,
2013-05-09 09:43:00,67.1,55.0,29.87,NW,305,0.0,1.0,65,0.00,,---,0.00,VWS V14.01,2013-05-09 13:43:00,
2013-05-09 09:48:00,67.2,54.2,29.87,NW,305,0.0,0.0,63,0.00,,---,0.00,VWS V14.01,2013-05-09 13:48:00,
2013-05-09 09:53:00,67.5,54.0,29.86,NW,305,0.0,1.0,62,0.00,,---,0.00,VWS V14.01,2013-05-09 13:53:00,
2013-05-09 09:58:00,68.0,54.1,29.86,NW,305,0.0,0.0,61,0.00,,---,0.00,VWS V14.01,2013-05-09 13:58:00,
2013-05-09 10:03:00,68.2,52.9,29.86,NW,305,0.0,0.0,58,0.00,,---,0.00,VWS V14.01,2013-05-09 14:03:00,
2013-05-09 10:08:00,68.6,54.2,29.86,NW,305,0.0,1.0,60,0.00,,---,0.00,VWS V14.01,2013-05-09 14:08:00,
2013-05-09 10:13:00,68.8,53.0,29.86,NW,305,0.0,1.0,57,0.00,,---,0.00,VWS V14.01,2013-05-09 14:13:00,
2013-05-09 10:18:00,69.2,53.3,29.86,NW,305,0.0,1.0,57,0.00,,---,0.00,VWS V14.01,2013-05-09 14:18:00,
2013-05-09 10:23:00,69.6,54.2,29.86,NW,305,0.0,0.0,58,0.00,,---,0.00,VWS V14.01,2013-05-09 14:23:00,
2013-05-09 10:28:00,70.3,55.3,29.86,NW,305,0.0,0.0,59,0.00,,---,0.00,VWS V14.01,2013-05-09 14:28:00,
2013-05-09 10:33:00,70.6,53.7,29.86,NW,305,0.0,0.0,55,0.00,,---,0.00,VWS V14.01,2013-05-09 14:33:00,
2013-05-09 10:38:00,71.0,54.5,29.86,NW,305,0.0,0.0,56,0.00,,---,0.00,VWS V14.01,2013-05-09 14:38:00,
2013-05-09 10:43:00,71.3,53.8,29.86,NW,305,0.0,1.0,54,0.00,,---,0.00,VWS V14.01,2013-05-09 14:43:00,
2013-05-09 10:48:00,71.2,52.2,29.86,NW,305,0.0,0.0,51,0.00,,---,0.00,VWS V14.01,2013-05-09 14:48:00,
2013-05-09 10:53:00,71.2,52.2,29.86,NW,305,0.0,0.0,51,0.00,,---,0.00,VWS V14.01,2013-05-09 14:53:00,
2013-05-09 10:58:00,71.1,52.6,29.86,NW,305,0.0,0.0,52,0.00,,---,0.00,VWS V14.01,2013-05-09 14:58:00,
2013-05-09 11:03:00,71.5,51.9,29.86,NW,305,0.0,0.0,50,0.00,,---,0.00,VWS V14.01,2013-05-09 15:03:00,
2013-05-09 11:08:00,72.1,53.5,29.86,NW,305,0.0,0.0,52,0.00,,---,0.00,VWS V14.01,2013-05-09 15:08:00,
2013-05-09 11:13:00,72.0,55.5,29.86,NW,305,0.0,0.0,56,0.00,,---,0.00,VWS V14.01,2013-05-09 15:13:00,
2013-05-09 11:18:00,72.0,55.0,29.86,NW,305,0.0,0.0,55,0.00,,---,0.00,VWS V14.01,2013-05-09 15:18:00,
2013-05-09 11:23:00,72.1,53.0,29.87,NW,305,0.0,0.0,51,0.00,,---,0.00,VWS V14.01,2013-05-09 15:23:00,
2013-05-09 11:28:00,72.2,52.5,29.87,NW,305,0.0,0.0,50,0.00,,---,0.00,VWS V14.01,2013-05-09 15:28:00,
2013-05-09 11:33:00,72.3,53.2,29.87,NW,305,0.0,0.0,51,0.00,,---,0.00,VWS V14.01,2013-05-09 15:33:00,
2013-05-09 11:38:00,73.0,55.4,29.87,NW,305,0.0,1.0,54,0.00,,---,0.00,VWS V14.01,2013-05-09 15:38:00,
2013-05-09 11:43:00,73.8,51.2,29.87,NW,305,0.0,0.0,45,0.00,,---,0.00,VWS V14.01,2013-05-09 15:43:00,
2013-05-09 11:48:00,73.5,51.5,29.87,NW,305,0.0,0.0,46,0.00,,---,0.00,VWS V14.01,2013-05-09 15:48:00,
2013-05-09 11:53:00,73.6,49.1,29.87,NW,305,0.0,1.0,42,0.00,,---,0.00,VWS V14.01,2013-05-09 15:53:00,
2013-05-09 11:58:00,74.3,51.0,29.87,NW,305,0.0,1.0,44,0.00,,---,0.00,VWS V14.01,2013-05-09 15:58:00,
2013-05-09 12:03:00,74.5,52.4,29.87,NW,305,1.0,1.0,46,0.00,,---,0.00,VWS V14.01,2013-05-09 16:03:00,
2013-05-09 12:08:00,74.9,50.9,29.87,NW,305,0.0,1.0,43,0.00,,---,0.00,VWS V14.01,2013-05-09 16:08:00,
2013-05-09 12:13:00,75.3,48.7,29.87,NW,305,0.0,0.0,39,0.00,,---,0.00,VWS V14.01,2013-05-09 16:13:00,
2013-05-09 12:18:00,75.3,46.5,29.87,NW,305,4.0,4.0,36,0.00,,---,0.00,VWS V14.01,2013-05-09 16:18:00,
2013-05-09 12:23:00,75.3,48.7,29.86,NW,305,0.0,1.0,39,0.00,,---,0.00,VWS V14.01,2013-05-09 16:23:00,
2013-05-09 12:28:00,75.7,51.6,29.86,West,278,0.0,3.0,43,0.00,,---,0.00,VWS V14.01,2013-05-09 16:28:00,
2013-05-09 12:33:00,76.0,48.6,29.86,West,278,0.0,0.0,38,0.00,,---,0.00,VWS V14.01,2013-05-09 16:33:00,
2013-05-09 12:38:00,76.1,49.4,29.86,West,278,0.0,0.0,39,0.00,,---,0.00,VWS V14.01,2013-05-09 16:38:00,
2013-05-09 12:43:00,76.9,50.8,29.86,West,278,0.0,1.0,40,0.00,,---,0.00,VWS V14.01,2013-05-09 16:43:00,
2013-05-09 12:48:00,77.1,47.4,29.86,West,278,0.0,1.0,35,0.00,,---,0.00,VWS V14.01,2013-05-09 16:48:00,
2013-05-09 12:53:00,77.3,49.7,29.86,West,278,0.0,1.0,38,0.00,,---,0.00,VWS V14.01,2013-05-09 16:53:00,
2013-05-09 12:58:00,77.7,50.1,29.86,West,278,0.0,1.0,38,0.00,,---,0.00,VWS V14.01,2013-05-09 16:58:00,
2013-05-09 13:03:00,78.1,51.8,29.86,WNW,284,0.0,3.0,40,0.00,,---,0.00,VWS V14.01,2013-05-09 17:03:00,
2013-05-09 13:08:00,78.5,49.3,29.85,West,281,0.0,1.0,36,0.00,,---,0.00,VWS V14.01,2013-05-09 17:08:00,
2013-05-09 13:13:00,78.9,51.2,29.85,WNW,283,0.0,1.0,38,0.00,,---,0.00,VWS V14.01,2013-05-09 17:13:00,
2013-05-09 13:18:00,79.1,49.9,29.85,WNW,285,0.0,2.0,36,0.00,,---,0.00,VWS V14.01,2013-05-09 17:18:00,
2013-05-09 13:23:00,79.0,52.0,29.84,WNW,285,0.0,0.0,39,0.00,,---,0.00,VWS V14.01,2013-05-09 17:23:00,
2013-05-09 13:28:00,78.9,49.0,29.84,WNW,288,0.0,1.0,35,0.00,,---,0.00,VWS V14.01,2013-05-09 17:28:00,
2013-05-09 13:33:00,79.4,48.6,29.84,ESE,106,1.0,3.0,34,0.00,,---,0.00,VWS V14.01,2013-05-09 17:33:00,
2013-05-09 13:38:00,79.4,50.9,29.84,ESE,120,0.0,1.0,37,0.00,,---,0.00,VWS V14.01,2013-05-09 17:38:00,
2013-05-09 13:43:00,79.1,47.6,29.84,ESE,120,0.0,0.0,33,0.00,,---,0.00,VWS V14.01,2013-05-09 17:43:00,
2013-05-09 13:48:00,79.2,50.0,29.84,North,2,1.0,5.0,36,0.00,,---,0.00,VWS V14.01,2013-05-09 17:48:00,
2013-05-09 13:53:00,79.7,49.7,29.83,North,0,0.0,1.0,35,0.00,,---,0.00,VWS V14.01,2013-05-09 17:53:00,
2013-05-09 13:58:00,79.3,46.1,29.83,WNW,297,1.0,3.0,31,0.00,,---,0.00,VWS V14.01,2013-05-09 17:58:00,
2013-05-09 14:03:00,79.3,50.8,29.83,WNW,297,0.0,1.0,37,0.00,,---,0.00,VWS V14.01,2013-05-09 18:03:00,
2013-05-09 14:08:00,79.3,47.7,29.83,WNW,297,1.0,1.0,33,0.00,,---,0.00,VWS V14.01,2013-05-09 18:08:00,
2013-05-09 14:13:00,78.9,49.7,29.83,WNW,297,0.0,2.0,36,0.00,,---,0.00,VWS V14.01,2013-05-09 18:13:00,
2013-05-09 14:18:00,79.5,51.7,29.83,WNW,297,0.0,1.0,38,0.00,,---,0.00,VWS V14.01,2013-05-09 18:18:00,
2013-05-09 14:23:00,80.3,48.6,29.82,ENE,78,1.0,1.0,33,0.00,,---,0.00,VWS V14.01,2013-05-09 18:23:00,
2013-05-09 14:28:00,80.8,51.4,29.82,ENE,78,0.0,1.0,36,0.00,,---,0.00,VWS V14.01,2013-05-09 18:28:00,
2013-05-09 14:33:00,80.4,51.0,29.82,NNE,28,0.0,1.0,36,0.00,,---,0.00,VWS V14.01,2013-05-09 18:33:00,
2013-05-09 14:38:00,80.7,49.0,29.82,WNW,294,4.0,4.0,33,0.00,,---,0.00,VWS V14.01,2013-05-09 18:38:00,
2013-05-09 14:43:00,79.8,47.3,29.82,WNW,293,0.0,1.0,32,0.00,,---,0.00,VWS V14.01,2013-05-09 18:43:00,
2013-05-09 14:48:00,79.3,50.1,29.82,NE,55,1.0,1.0,36,0.00,,---,0.00,VWS V14.01,2013-05-09 18:48:00,
2013-05-09 14:53:00,79.1,49.9,29.81,NE,56,0.0,0.0,36,0.00,,---,0.00,VWS V14.01,2013-05-09 18:53:00,
2013-05-09 14:58:00,79.5,53.1,29.81,SE,126,0.0,1.0,40,0.00,,---,0.00,VWS V14.01,2013-05-09 18:58:00,
2013-05-09 15:03:00,79.2,50.7,29.81,East,94,1.0,1.0,37,0.00,,---,0.00,VWS V14.01,2013-05-09 19:03:00,
2013-05-09 15:08:00,78.6,50.2,29.81,SE,128,2.0,3.0,37,0.00,,---,0.00,VWS V14.01,2013-05-09 19:08:00,
2013-05-09 15:13:00,78.1,51.8,29.81,SE,128,0.0,1.0,40,0.00,,---,0.00,VWS V14.01,2013-05-09 19:13:00,
2013-05-09 15:18:00,77.6,51.4,29.81,SE,128,0.0,0.0,40,0.00,,---,0.00,VWS V14.01,2013-05-09 19:18:00,
2013-05-09 15:23:00,77.2,51.7,29.81,South,179,0.0,2.0,41,0.00,,---,0.00,VWS V14.01,2013-05-09 19:23:00,
2013-05-09 15:28:00,76.9,51.4,29.81,ENE,76,0.0,0.0,41,0.00,,---,0.00,VWS V14.01,2013-05-09 19:28:00,
2013-05-09 15:33:00,76.6,51.8,29.81,ENE,76,0.0,0.0,42,0.00,,---,0.00,VWS V14.01,2013-05-09 19:33:00,
2013-05-09 15:38:00,76.1,53.2,29.81,ENE,76,0.0,0.0,45,0.00,,---,0.00,VWS V14.01,2013-05-09 19:38:00,
2013-05-09 15:43:00,75.7,52.9,29.81,ENE,76,0.0,0.0,45,0.00,,---,0.00,VWS V14.01,2013-05-09 19:43:00,
2013-05-09 15:48:00,75.6,55.1,29.81,ENE,76,0.0,0.0,49,0.00,,---,0.00,VWS V14.01,2013-05-09 19:48:00,
2013-05-09 15:53:00,75.9,53.7,29.81,ENE,76,0.0,0.0,46,0.00,,---,0.00,VWS V14.01,2013-05-09 19:53:00,
2013-05-09 15:57:00,76.2,53.9,29.81,ENE,76,0.0,0.0,46,0.00,,---,0.00,VWS V14.01,2013-05-09 19:57:00,
2013-05-09 16:02:00,76.6,53.1,29.81,ENE,76,0.0,0.0,44,0.00,,---,0.00,VWS V14.01,2013-05-09 20:02:00,
2013-05-09 16:07:00,76.7,53.2,29.80,ENE,76,0.0,1.0,44,0.00,,---,0.00,VWS V14.01,2013-05-09 20:07:00,
2013-05-09 16:12:00,76.7,53.8,29.80,ENE,76,0.0,0.0,45,0.00,,---,0.00,VWS V14.01,2013-05-09 20:12:00,
2013-05-09 16:17:00,76.8,53.3,29.80,ENE,76,0.0,0.0,44,0.00,,---,0.00,VWS V14.01,2013-05-09 20:17:00,
2013-05-09 16:22:00,76.9,52.1,29.80,ENE,76,0.0,1.0,42,0.00,,---,0.00,VWS V14.01,2013-05-09 20:22:00,
2013-05-09 16:27:00,76.9,52.7,29.80,ENE,76,0.0,0.0,43,0.00,,---,0.00,VWS V14.01,2013-05-09 20:27:00,
2013-05-09 16:32:00,76.9,52.1,29.80,ENE,76,0.0,0.0,42,0.00,,---,0.00,VWS V14.01,2013-05-09 20:32:00,
2013-05-09 16:37:00,76.9,53.3,29.79,SSW,203,1.0,1.0,44,0.00,,---,0.00,VWS V14.01,2013-05-09 20:37:00,
2013-05-09 16:42:00,76.8,50.0,29.79,SSW,203,0.0,0.0,39,0.00,,---,0.00,VWS V14.01,2013-05-09 20:42:00,
2013-05-09 16:47:00,76.6,52.5,29.79,SSW,203,0.0,0.0,43,0.00,,---,0.00,VWS V14.01,2013-05-09 20:47:00,
2013-05-09 16:52:00,76.3,52.8,29.79,SSW,203,1.0,1.0,44,0.00,,---,0.00,VWS V14.01,2013-05-09 20:52:00,
2013-05-09 16:57:00,75.8,53.6,29.79,SSW,212,0.0,2.0,46,0.00,,---,0.00,VWS V14.01,2013-05-09 20:57:00,
2013-05-09 17:02:00,75.0,54.0,29.79,SE,141,0.0,0.0,48,0.00,,---,0.00,VWS V14.01,2013-05-09 21:02:00,
2013-05-09 17:07:00,74.4,54.6,29.80,SW,227,0.0,3.0,50,0.00,,---,0.00,VWS V14.01,2013-05-09 21:07:00,
2013-05-09 17:12:00,74.2,55.5,29.80,SW,227,0.0,2.0,52,0.00,,---,0.00,VWS V14.01,2013-05-09 21:12:00,
2013-05-09 17:17:00,73.9,55.7,29.80,SW,227,0.0,0.0,53,0.00,,---,0.00,VWS V14.01,2013-05-09 21:17:00,
2013-05-09 17:22:00,73.7,55.5,29.80,SW,227,0.0,1.0,53,0.00,,---,0.00,VWS V14.01,2013-05-09 21:22:00,
2013-05-09 17:27:00,73.3,55.7,29.80,SW,227,0.0,0.0,54,0.00,,---,0.00,VWS V14.01,2013-05-09 21:27:00,
2013-05-09 17:32:00,73.0,55.9,29.80,SW,227,0.0,1.0,55,0.00,,---,0.00,VWS V14.01,2013-05-09 21:32:00,
2013-05-09 17:37:00,73.1,55.5,29.80,SW,227,0.0,1.0,54,0.00,,---,0.00,VWS V14.01,2013-05-09 21:37:00,
2013-05-09 17:42:00,73.0,56.9,29.80,West,262,1.0,6.0,57,0.00,,---,0.00,VWS V14.01,2013-05-09 21:42:00,
2013-05-09 17:47:00,71.9,58.6,29.80,NW,312,1.0,2.0,63,0.00,,---,0.00,VWS V14.01,2013-05-09 21:47:00,
2013-05-09 17:52:00,71.1,59.2,29.81,WNW,299,0.0,0.0,66,0.00,,---,0.00,VWS V14.01,2013-05-09 21:52:00,
2013-05-09 17:57:00,70.7,59.6,29.81,NNW,340,0.0,0.0,68,0.00,,---,0.00,VWS V14.01,2013-05-09 21:57:00,
2013-05-09 18:02:00,70.4,59.3,29.81,NW,321,0.0,1.0,68,0.00,,---,0.00,VWS V14.01,2013-05-09 22:02:00,
2013-05-09 18:07:00,69.9,59.3,29.81,NW,310,0.0,1.0,69,0.00,,---,0.00,VWS V14.01,2013-05-09 22:07:00,
2013-05-09 18:12:00,69.8,59.2,29.81,NW,311,1.0,1.0,69,0.00,,---,0.00,VWS V14.01,2013-05-09 22:12:00,
2013-05-09 18:17:00,69.7,59.5,29.81,North,349,0.0,0.0,70,0.00,,---,0.00,VWS V14.01,2013-05-09 22:17:00,
2013-05-09 18:22:00,69.6,59.8,29.81,NNW,332,0.0,0.0,71,0.00,,---,0.00,VWS V14.01,2013-05-09 22:22:00,
2013-05-09 18:27:00,69.6,59.4,29.81,NNW,332,0.0,1.0,70,0.00,,---,0.00,VWS V14.01,2013-05-09 22:27:00,
2013-05-09 18:32:00,69.6,59.4,29.81,NNW,332,0.0,1.0,70,0.00,,---,0.00,VWS V14.01,2013-05-09 22:32:00,
2013-05-09 18:37:00,69.6,59.8,29.81,NNW,332,0.0,0.0,71,0.00,,---,0.00,VWS V14.01,2013-05-09 22:37:00,
2013-05-09 18:42:00,69.6,59.4,29.81,NNW,332,0.0,0.0,70,0.00,,---,0.00,VWS V14.01,2013-05-09 22:42:00,
2013-05-09 18:47:00,69.7,59.9,29.81,NNW,332,0.0,0.0,71,0.00,,---,0.00,VWS V14.01,2013-05-09 22:47:00,
2013-05-09 18:52:00,69.7,59.9,29.81,NNW,332,0.0,0.0,71,0.00,,---,0.00,VWS V14.01,2013-05-09 22:52:00,
2013-05-09 18:57:00,69.9,60.5,29.81,NNW,332,0.0,0.0,72,0.00,,---,0.00,VWS V14.01,2013-05-09 22:57:00,
2013-05-09 19:02:00,70.1,60.3,29.81,NNW,332,0.0,0.0,71,0.00,,---,0.00,VWS V14.01,2013-05-09 23:02:00,
2013-05-09 19:07:00,70.5,57.8,29.80,SW,236,0.0,1.0,64,0.00,,---,0.00,VWS V14.01,2013-05-09 23:07:00,
2013-05-09 19:12:00,70.5,57.8,29.80,WSW,237,1.0,3.0,64,0.00,,---,0.00,VWS V14.01,2013-05-09 23:12:00,
2013-05-09 19:17:00,70.3,57.6,29.80,WSW,237,0.0,0.0,64,0.00,,---,0.00,VWS V14.01,2013-05-09 23:17:00,
2013-05-09 19:22:00,70.1,57.8,29.80,WSW,237,0.0,0.0,65,0.00,,---,0.00,VWS V14.01,2013-05-09 23:22:00,
2013-05-09 19:27:00,69.9,58.0,29.80,WSW,237,0.0,0.0,66,0.00,,---,0.00,VWS V14.01,2013-05-09 23:27:00,
2013-05-09 19:32:00,69.6,57.3,29.80,South,174,1.0,1.0,65,0.00,,---,0.00,VWS V14.01,2013-05-09 23:32:00,
2013-05-09 19:37:00,69.4,57.1,29.80,SSW,195,0.0,1.0,65,0.00,,---,0.00,VWS V14.01,2013-05-09 23:37:00,
2013-05-09 19:42:00,69.2,56.5,29.80,SSW,195,0.0,0.0,64,0.00,,---,0.00,VWS V14.01,2013-05-09 23:42:00,
2013-05-09 19:47:00,69.0,56.3,29.80,SSE,156,0.0,0.0,64,0.00,,---,0.00,VWS V14.01,2013-05-09 23:47:00,
2013-05-09 19:52:00,68.8,57.0,29.80,SSE,156,0.0,0.0,66,0.00,,---,0.00,VWS V14.01,2013-05-09 23:52:00,
2013-05-09 19:57:00,68.7,57.3,29.80,NNW,337,0.0,0.0,67,0.00,,---,0.00,VWS V14.01,2013-05-09 23:57:00,
2013-05-09 20:02:00,68.5,57.1,29.80,NNW,337,0.0,1.0,67,0.00,,---,0.00,VWS V14.01,2013-05-10 00:02:00,
2013-05-09 20:07:00,68.4,57.4,29.80,NNW,333,0.0,0.0,68,0.00,,---,0.00,VWS V14.01,2013-05-10 00:07:00,
2013-05-09 20:12:00,68.2,57.7,29.80,NE,41,0.0,0.0,69,0.00,,---,0.00,VWS V14.01,2013-05-10 00:12:00,
2013-05-09 20:17:00,68.0,57.9,29.80,NE,41,0.0,0.0,70,0.00,,---,0.00,VWS V14.01,2013-05-10 00:17:00,
2013-05-09 20:22:00,67.9,57.8,29.79,NE,41,0.0,0.0,70,0.00,,---,0.00,VWS V14.01,2013-05-10 00:22:00,
2013-05-09 20:27:00,67.7,58.0,29.79,NE,41,0.0,0.0,71,0.00,,---,0.00,VWS V14.01,2013-05-10 00:27:00,
2013-05-09 20:32:00,67.4,58.1,29.79,NE,41,0.0,0.0,72,0.00,,---,0.00,VWS V14.01,2013-05-10 00:32:00,
2013-05-09 20:37:00,67.0,58.1,29.79,NE,41,0.0,0.0,73,0.00,,---,0.00,VWS V14.01,2013-05-10 00:37:00,
2013-05-09 20:42:00,66.9,58.0,29.79,NE,41,0.0,0.0,73,0.00,,---,0.00,VWS V14.01,2013-05-10 00:42:00,
2013-05-09 20:47:00,66.8,58.3,29.79,NE,41,0.0,0.0,74,0.00,,---,0.00,VWS V14.01,2013-05-10 00:47:00,
2013-05-09 20:52:00,66.5,58.3,29.79,NE,41,0.0,0.0,75,0.00,,---,0.00,VWS V14.01,2013-05-10 00:52:00,
2013-05-09 20:57:00,66.4,58.2,29.79,NE,41,0.0,0.0,75,0.00,,---,0.00,VWS V14.01,2013-05-10 00:57:00,
2013-05-09 21:02:00,66.3,58.2,29.79,NE,41,0.0,0.0,75,0.00,,---,0.00,VWS V14.01,2013-05-10 01:02:00,
2013-05-09 21:07:00,66.3,58.2,29.78,NE,41,0.0,0.0,75,0.00,,---,0.00,VWS V14.01,2013-05-10 01:07:00,
2013-05-09 21:12:00,66.1,58.0,29.78,NE,41,0.0,0.0,75,0.00,,---,0.00,VWS V14.01,2013-05-10 01:12:00,
2013-05-09 21:17:00,66.2,57.7,29.78,NE,41,0.0,0.0,74,0.00,,---,0.00,VWS V14.01,2013-05-10 01:17:00,
2013-05-09 21:22:00,66.2,57.7,29.77,NE,41,0.0,0.0,74,0.00,,---,0.00,VWS V14.01,2013-05-10 01:22:00,
2013-05-09 21:27:00,66.1,57.6,29.77,NE,41,0.0,0.0,74,0.00,,---,0.00,VWS V14.01,2013-05-10 01:27:00,
2013-05-09 21:32:00,65.7,57.9,29.77,NE,41,0.0,0.0,76,0.00,,---,0.00,VWS V14.01,2013-05-10 01:32:00,
2013-05-09 21:37:00,65.4,58.0,29.76,NE,41,0.0,0.0,77,0.00,,---,0.00,VWS V14.01,2013-05-10 01:37:00,
2013-05-09 21:42:00,65.2,58.2,29.76,NE,41,0.0,0.0,78,0.00,,---,0.00,VWS V14.01,2013-05-10 01:42:00,
2013-05-09 21:47:00,65.1,58.1,29.76,NE,41,0.0,0.0,78,0.00,,---,0.00,VWS V14.01,2013-05-10 01:47:00,
2013-05-09 21:52:00,65.0,58.0,29.77,NE,41,0.0,0.0,78,0.00,,---,0.00,VWS V14.01,2013-05-10 01:52:00,
2013-05-09 21:57:00,65.0,58.0,29.77,NE,41,0.0,0.0,78,0.00,,---,0.00,VWS V14.01,2013-05-10 01:57:00,
2013-05-09 22:02:00,65.2,58.2,29.77,NE,41,0.0,0.0,78,0.00,,---,0.00,VWS V14.01,2013-05-10 02:02:00,
2013-05-09 22:07:00,65.3,57.9,29.77,NE,41,0.0,0.0,77,0.00,,---,0.00,VWS V14.01,2013-05-10 02:07:00,
2013-05-09 22:12:00,65.1,58.1,29.77,NE,41,0.0,0.0,78,0.00,,---,0.00,VWS V14.01,2013-05-10 02:12:00,
2013-05-09 22:17:00,64.9,58.2,29.77,NE,41,0.0,0.0,79,0.00,,---,0.00,VWS V14.01,2013-05-10 02:17:00,
2013-05-09 22:22:00,64.7,58.0,29.78,NE,41,0.0,0.0,79,0.00,,---,0.00,VWS V14.01,2013-05-10 02:22:00,
2013-05-09 22:27:00,64.5,58.2,29.78,NE,41,0.0,0.0,80,0.00,,---,0.00,VWS V14.01,2013-05-10 02:27:00,
2013-05-09 22:32:00,64.3,58.7,29.78,NE,41,0.0,0.0,82,0.00,,---,0.00,VWS V14.01,2013-05-10 02:32:00,
2013-05-09 22:37:00,63.9,59.0,29.78,NE,41,0.0,0.0,84,0.00,,---,0.00,VWS V14.01,2013-05-10 02:37:00,
2013-05-09 22:42:00,63.6,58.7,29.78,NE,41,0.0,0.0,84,0.00,,---,0.00,VWS V14.01,2013-05-10 02:42:00,
2013-05-09 22:47:00,63.4,58.8,29.78,NE,41,0.0,0.0,85,0.00,,---,0.00,VWS V14.01,2013-05-10 02:47:00,
2013-05-09 22:52:00,63.1,58.8,29.79,NE,41,0.0,0.0,86,0.00,,---,0.00,VWS V14.01,2013-05-10 02:52:00,
2013-05-09 22:57:00,62.8,59.2,29.79,NE,41,0.0,0.0,88,0.01,,---,0.01,VWS V14.01,2013-05-10 02:57:00,
2013-05-09 23:02:00,62.4,59.4,29.79,NE,41,0.0,0.0,90,0.01,,---,0.01,VWS V14.01,2013-05-10 03:02:00,
2013-05-09 23:07:00,62.0,59.3,29.79,NE,41,0.0,0.0,91,0.02,,---,0.02,VWS V14.01,2013-05-10 03:07:00,
2013-05-09 23:12:00,61.7,59.4,29.79,NE,41,0.0,0.0,92,0.02,,---,0.02,VWS V14.01,2013-05-10 03:12:00,
2013-05-09 23:17:00,61.5,59.2,29.79,NE,41,0.0,0.0,92,0.03,,---,0.03,VWS V14.01,2013-05-10 03:17:00,
2013-05-09 23:22:00,61.3,59.3,29.79,NE,41,0.0,0.0,93,0.04,,---,0.04,VWS V14.01,2013-05-10 03:22:00,
2013-05-09 23:27:00,61.1,59.1,29.79,NE,41,0.0,0.0,93,0.04,,---,0.04,VWS V14.01,2013-05-10 03:27:00,
2013-05-09 23:32:00,61.0,59.3,29.79,NE,41,0.0,0.0,94,0.05,,---,0.05,VWS V14.01,2013-05-10 03:32:00,
2013-05-09 23:37:00,61.0,59.3,29.77,NE,41,0.0,0.0,94,0.05,,---,0.05,VWS V14.01,2013-05-10 03:37:00,
2013-05-09 23:42:00,61.0,59.6,29.77,NE,41,0.0,0.0,95,0.05,,---,0.05,VWS V14.01,2013-05-10 03:42:00,
2013-05-09 23:47:00,60.8,59.4,29.77,NE,41,0.0,0.0,95,0.05,,---,0.05,VWS V14.01,2013-05-10 03:47:00,
2013-05-09 23:52:00,60.7,59.3,29.76,NE,41,0.0,0.0,95,0.05,,---,0.05,VWS V14.01,2013-05-10 03:52:00,
2013-05-09 23:57:00,60.6,59.2,29.76,NE,41,0.0,0.0,95,0.04,,---,0.05,VWS V14.01,2013-05-10 03:57:00,